createdAt,value
2022-11-13T00:02:38.356Z,101453.00
2022-11-13T00:05:24.522Z,101444.38
2022-11-13T00:08:10.140Z,101446.25
2022-11-13T00:11:21.827Z,101446.00
2022-11-13T00:14:07.852Z,101444.59
2022-11-13T00:16:53.509Z,101446.00
2022-11-13T00:19:39.318Z,101446.78
2022-11-13T00:22:25.149Z,101446.81
2022-11-13T00:25:10.952Z,101448.78
2022-11-13T00:27:56.603Z,101446.41
2022-11-13T00:30:42.682Z,101458.97
2022-11-13T00:33:54.975Z,101457.50
2022-11-13T00:36:34.007Z,101451.09
2022-11-13T00:39:19.968Z,101449.59
2022-11-13T00:42:05.620Z,101448.28
2022-11-13T00:44:51.235Z,101458.28
2022-11-13T00:47:37.165Z,101461.69
2022-11-13T00:50:22.732Z,101458.69
2022-11-13T00:53:08.438Z,101455.19
2022-11-13T00:55:54.339Z,101447.31
2022-11-13T00:58:40.159Z,101449.63
2022-11-13T01:01:25.938Z,101444.25
2022-11-13T01:04:11.983Z,101449.81
2022-11-13T01:06:57.796Z,101444.56
2022-11-13T01:09:43.978Z,101445.62
2022-11-13T01:12:29.663Z,101439.19
2022-11-13T01:15:15.544Z,101438.34
2022-11-13T01:18:01.243Z,101434.75
2022-11-13T01:20:46.990Z,101433.16
2022-11-13T01:23:32.895Z,101432.41
2022-11-13T01:26:26.376Z,101434.59
2022-11-13T01:29:12.600Z,101435.34
2022-11-13T01:31:58.485Z,101428.88
2022-11-13T01:34:44.333Z,101418.91
2022-11-13T01:37:30.028Z,101418.88
2022-11-13T01:40:15.853Z,101422.97
2022-11-13T01:43:14.848Z,101415.94
2022-11-13T01:46:00.352Z,101424.31
2022-11-13T01:49:07.944Z,101411.28
2022-11-13T01:52:04.776Z,101426.41
2022-11-13T01:54:53.025Z,101427.25
2022-11-13T01:57:38.815Z,101415.81
2022-11-13T02:00:24.731Z,101407.50
2022-11-13T02:03:11.550Z,101404.97
2022-11-13T02:05:57.512Z,101406.66
2022-11-13T02:08:43.221Z,101403.97
2022-11-13T02:11:29.124Z,101390.50
2022-11-13T02:14:14.999Z,101396.06
2022-11-13T02:17:01.749Z,101393.94
2022-11-13T02:19:49.733Z,101392.16
2022-11-13T02:22:50.917Z,101387.62
2022-11-13T02:25:36.764Z,101384.25
2022-11-13T02:28:22.815Z,101386.00
2022-11-13T02:31:09.631Z,101383.91
2022-11-13T02:33:55.399Z,101378.00
2022-11-13T02:36:41.128Z,101372.34
2022-11-13T02:39:26.854Z,101374.81
2022-11-13T02:42:12.894Z,101371.63
2022-11-13T02:44:58.603Z,101375.16
2022-11-13T02:47:44.352Z,101372.87
2022-11-13T02:50:30.415Z,101370.53
2022-11-13T02:53:16.416Z,101365.53
2022-11-13T02:56:02.191Z,101367.91
2022-11-13T02:58:47.757Z,101369.88
2022-11-13T03:01:33.484Z,101380.13
2022-11-13T03:04:19.204Z,101375.34
2022-11-13T03:07:04.955Z,101381.22
2022-11-13T03:09:50.789Z,101389.63
2022-11-13T03:12:36.677Z,101386.41
2022-11-13T03:15:22.232Z,101383.66
2022-11-13T03:18:08.105Z,101388.94
2022-11-13T03:20:54.174Z,101380.06
2022-11-13T03:23:40.303Z,101390.88
2022-11-13T03:26:28.325Z,101380.47
2022-11-13T03:29:13.951Z,101380.25
2022-11-13T03:31:59.596Z,101379.56
2022-11-13T03:34:45.762Z,101387.94
2022-11-13T03:37:31.665Z,101393.63
2022-11-13T03:40:17.790Z,101393.50
2022-11-13T03:43:03.582Z,101389.91
2022-11-13T03:45:49.393Z,101392.44
2022-11-13T03:48:35.207Z,101388.22
2022-11-13T03:51:20.735Z,101383.63
2022-11-13T03:54:06.529Z,101382.53
2022-11-13T03:56:52.098Z,101374.34
2022-11-13T03:59:37.937Z,101379.81
2022-11-13T04:02:23.838Z,101381.12
2022-11-13T04:05:09.456Z,101385.56
2022-11-13T04:07:55.145Z,101377.47
2022-11-13T04:10:40.766Z,101387.00
2022-11-13T04:13:26.308Z,101386.91
2022-11-13T04:16:12.421Z,101386.78
2022-11-13T04:18:58.053Z,101375.91
2022-11-13T04:21:43.624Z,101386.63
2022-11-13T04:24:29.274Z,101387.50
2022-11-13T04:27:14.861Z,101385.69
2022-11-13T04:30:00.689Z,101373.88
2022-11-13T04:32:46.309Z,101381.47
2022-11-13T04:35:32.295Z,101384.25
2022-11-13T04:38:18.182Z,101388.59
2022-11-13T04:41:22.735Z,101381.12
2022-11-13T04:44:08.773Z,101382.31
2022-11-13T04:46:54.668Z,101394.69
2022-11-13T04:49:40.364Z,101377.72
2022-11-13T04:52:26.153Z,101371.72
2022-11-13T04:55:11.758Z,101377.38
2022-11-13T04:57:57.540Z,101370.62
2022-11-13T05:00:43.291Z,101382.03
2022-11-13T05:03:28.990Z,101372.19
2022-11-13T05:06:14.620Z,101379.91
2022-11-13T05:09:00.280Z,101370.50
2022-11-13T05:11:45.907Z,101387.72
2022-11-13T05:14:31.616Z,101377.84
2022-11-13T05:17:17.460Z,101376.88
2022-11-13T05:20:03.499Z,101376.03
2022-11-13T05:22:49.545Z,101377.47
2022-11-13T05:25:35.328Z,101378.63
2022-11-13T05:28:21.281Z,101383.06
2022-11-13T05:31:08.791Z,101385.84
2022-11-13T05:33:54.606Z,101390.41
2022-11-13T05:36:40.308Z,101386.75
2022-11-13T05:39:25.930Z,101378.69
2022-11-13T05:42:12.058Z,101383.72
2022-11-13T05:44:57.671Z,101387.34
2022-11-13T05:47:43.256Z,101370.53
2022-11-13T05:50:28.965Z,101367.75
2022-11-13T05:53:14.607Z,101369.53
2022-11-13T05:56:04.941Z,101370.66
2022-11-13T05:58:51.171Z,101364.00
2022-11-13T06:01:37.805Z,101348.34
2022-11-13T06:04:23.684Z,101350.03
2022-11-13T06:07:09.373Z,101358.22
2022-11-13T06:09:54.885Z,101357.97
2022-11-13T06:12:40.745Z,101352.78
2022-11-13T06:15:26.393Z,101369.06
2022-11-13T06:18:12.267Z,101365.78
2022-11-13T06:21:05.339Z,101355.09
2022-11-13T06:23:51.218Z,101354.47
2022-11-13T06:26:36.908Z,101361.34
2022-11-13T06:29:22.569Z,101356.25
2022-11-13T06:32:08.408Z,101365.41
2022-11-13T06:34:54.054Z,101367.09
2022-11-13T06:37:40.095Z,101360.59
2022-11-13T06:40:25.666Z,101371.09
2022-11-13T06:43:11.266Z,101364.12
2022-11-13T06:45:57.268Z,101375.19
2022-11-13T06:48:43.191Z,101379.31
2022-11-13T06:51:29.762Z,101372.44
2022-11-13T06:54:15.876Z,101377.22
2022-11-13T06:57:01.616Z,101377.13
2022-11-13T06:59:47.203Z,101385.53
2022-11-13T07:02:32.957Z,101377.97
2022-11-13T07:05:18.567Z,101384.97
2022-11-13T07:08:04.261Z,101385.72
2022-11-13T07:10:54.756Z,101386.41
2022-11-13T07:13:40.823Z,101397.22
2022-11-13T07:16:38.945Z,101381.66
2022-11-13T07:19:32.747Z,101387.72
2022-11-13T07:22:18.501Z,101389.50
2022-11-13T07:25:04.378Z,101381.53
2022-11-13T07:27:50.209Z,101388.78
2022-11-13T07:30:35.902Z,101379.09
2022-11-13T07:33:21.634Z,101376.97
2022-11-13T07:36:08.341Z,101387.03
2022-11-13T07:38:57.860Z,101380.13
2022-11-13T07:41:47.452Z,101384.50
2022-11-13T07:44:53.577Z,101385.06
2022-11-13T07:47:39.338Z,101392.56
2022-11-13T07:50:26.051Z,101383.50
2022-11-13T07:53:11.751Z,101386.06
2022-11-13T07:56:00.706Z,101380.84
2022-11-13T07:58:46.337Z,101389.34
2022-11-13T08:01:32.128Z,101380.09
2022-11-13T08:04:18.307Z,101379.84
2022-11-13T08:07:03.934Z,101377.72
2022-11-13T08:09:50.070Z,101374.41
2022-11-13T08:12:35.792Z,101367.62
2022-11-13T08:15:21.500Z,101376.75
2022-11-13T08:18:07.315Z,101374.38
2022-11-13T08:20:52.977Z,101378.56
2022-11-13T08:23:38.750Z,101374.03
2022-11-13T08:26:24.402Z,101372.69
2022-11-13T08:29:10.305Z,101371.03
2022-11-13T08:31:56.175Z,101373.25
2022-11-13T08:34:41.821Z,101371.63
2022-11-13T08:37:27.650Z,101378.41
2022-11-13T08:40:13.517Z,101372.66
2022-11-13T08:43:00.292Z,101364.75
2022-11-13T08:45:47.379Z,101365.13
2022-11-13T08:48:33.405Z,101362.87
2022-11-13T08:51:19.038Z,101363.63
2022-11-13T08:54:04.900Z,101364.38
2022-11-13T08:56:55.800Z,101365.78
2022-11-13T08:59:42.588Z,101359.03
2022-11-13T09:02:28.664Z,101358.72
2022-11-13T09:05:14.479Z,101361.97
2022-11-13T09:08:01.137Z,101362.72
2022-11-13T09:10:47.379Z,101367.97
2022-11-13T09:13:33.826Z,101368.47
2022-11-13T09:16:19.639Z,101373.84
2022-11-13T09:19:05.451Z,101363.97
2022-11-13T09:21:51.824Z,101365.41
2022-11-13T09:24:38.283Z,101354.38
2022-11-13T09:27:24.097Z,101370.56
2022-11-13T09:30:10.173Z,101358.81
2022-11-13T09:32:57.152Z,101365.31
2022-11-13T09:35:43.151Z,101365.34
2022-11-13T09:38:31.973Z,101361.91
2022-11-13T09:41:20.775Z,101356.16
2022-11-13T09:44:12.209Z,101346.94
2022-11-13T09:47:14.700Z,101348.06
2022-11-13T09:50:02.128Z,101351.97
2022-11-13T09:52:47.768Z,101346.09
2022-11-13T09:55:35.063Z,101340.50
2022-11-13T09:58:26.562Z,101343.25
2022-11-13T10:01:17.868Z,101334.94
2022-11-13T10:04:06.952Z,101326.91
2022-11-13T10:07:00.701Z,101328.94
2022-11-13T10:09:55.518Z,101324.69
2022-11-13T10:12:41.284Z,101321.63
2022-11-13T10:15:26.973Z,101322.56
2022-11-13T10:18:24.155Z,101323.19
2022-11-13T10:21:13.283Z,101316.69
2022-11-13T10:23:58.965Z,101305.38
2022-11-13T10:26:44.759Z,101302.72
2022-11-13T10:29:30.832Z,101308.03
2022-11-13T10:32:27.712Z,101301.94
2022-11-13T10:35:22.238Z,101296.12
2022-11-13T10:38:21.980Z,101288.91
2022-11-13T10:41:13.376Z,101288.44
2022-11-13T10:44:07.042Z,101281.66
2022-11-13T10:47:06.221Z,101275.94
2022-11-13T10:49:51.916Z,101272.00
2022-11-13T10:52:45.085Z,101266.94
2022-11-13T10:55:41.007Z,101255.31
2022-11-13T10:58:26.937Z,101255.13
2022-11-13T11:01:23.042Z,101250.44
2022-11-13T11:04:12.802Z,101246.56
2022-11-13T11:07:22.050Z,101243.47
2022-11-13T11:10:23.616Z,101231.81
2022-11-13T11:13:20.266Z,101233.22
2022-11-13T11:16:06.420Z,101232.81
2022-11-13T11:18:56.362Z,101229.47
2022-11-13T11:21:42.626Z,101222.91
2022-11-13T11:24:32.454Z,101228.00
2022-11-13T11:27:22.965Z,101218.47
2022-11-13T11:30:22.784Z,101211.34
2022-11-13T11:33:48.894Z,101216.19
2022-11-13T11:37:04.004Z,101209.91
2022-11-13T11:40:00.001Z,101208.38
2022-11-13T11:42:54.353Z,101206.87
2022-11-13T11:45:42.782Z,101205.34
2022-11-13T11:48:31.269Z,101204.03
2022-11-13T11:51:34.677Z,101197.53
2022-11-13T11:54:27.932Z,101189.22
2022-11-13T11:57:22.751Z,101184.78
2022-11-13T12:00:18.570Z,101185.44
2022-11-13T12:03:04.357Z,101178.31
2022-11-13T12:06:14.710Z,101175.22
2022-11-13T12:09:09.010Z,101162.09
2022-11-13T12:12:33.651Z,101165.09
2022-11-13T12:15:35.317Z,101156.47
2022-11-13T12:18:30.320Z,101155.66
2022-11-13T12:21:34.295Z,101150.34
2022-11-13T12:24:49.881Z,101135.69
2022-11-13T12:27:58.958Z,101131.19
2022-11-13T12:31:23.271Z,101127.38
2022-11-13T12:34:26.369Z,101117.72
2022-11-13T12:37:13.839Z,101121.00
2022-11-13T12:40:07.789Z,101124.72
2022-11-13T12:42:57.608Z,101115.88
2022-11-13T12:45:50.340Z,101112.63
2022-11-13T12:48:38.272Z,101111.91
2022-11-13T12:51:23.955Z,101104.37
2022-11-13T12:54:10.050Z,101103.31
2022-11-13T12:57:30.029Z,101099.53
2022-11-13T13:00:26.764Z,101106.16
2022-11-13T13:03:12.425Z,101102.03
2022-11-13T13:06:06.841Z,101099.69
2022-11-13T13:09:18.511Z,101096.72
2022-11-13T13:12:13.358Z,101093.12
2022-11-13T13:15:17.574Z,101096.69
2022-11-13T13:18:11.686Z,101093.72
2022-11-13T13:20:57.518Z,101087.25
2022-11-13T13:23:50.973Z,101086.84
2022-11-13T13:26:44.904Z,101090.44
2022-11-13T13:29:30.922Z,101101.81
2022-11-13T13:32:42.617Z,101095.78
2022-11-13T13:36:00.833Z,101089.31
2022-11-13T13:39:07.739Z,101092.47
2022-11-13T13:41:58.034Z,101090.09
2022-11-13T13:44:57.948Z,101074.28
2022-11-13T13:47:45.438Z,101080.25
2022-11-13T13:50:33.435Z,101077.44
2022-11-13T13:53:31.094Z,101073.84
2022-11-13T13:56:17.018Z,101071.94
2022-11-13T13:59:02.875Z,101075.00
2022-11-13T14:02:23.050Z,101085.38
2022-11-13T14:05:30.399Z,101080.25
2022-11-13T14:08:20.093Z,101073.25
2022-11-13T14:14:35.567Z,101071.47
2022-11-13T14:17:25.216Z,101080.31
2022-11-13T14:20:11.771Z,101081.22
2022-11-13T14:22:57.588Z,101078.16
2022-11-13T14:25:43.275Z,101078.00
2022-11-13T14:28:53.412Z,101070.75
2022-11-13T14:31:39.582Z,101072.09
2022-11-13T14:34:25.616Z,101067.28
2022-11-13T14:37:16.961Z,101069.06
2022-11-13T14:40:27.215Z,101072.34
2022-11-13T14:43:33.429Z,101078.38
2022-11-13T14:46:38.994Z,101065.44
2022-11-13T14:49:35.197Z,101073.69
2022-11-13T14:52:22.557Z,101075.97
2022-11-13T14:55:19.857Z,101066.12
2022-11-13T14:58:05.893Z,101069.56
2022-11-13T15:00:51.830Z,101068.97
2022-11-13T15:03:37.756Z,101057.72
2022-11-13T15:06:25.449Z,101060.50
2022-11-13T15:09:15.188Z,101061.69
2022-11-13T15:12:00.926Z,101060.44
2022-11-13T15:14:47.011Z,101049.22
2022-11-13T15:17:32.611Z,101054.88
2022-11-13T15:20:24.184Z,101058.28
2022-11-13T15:23:13.583Z,101055.81
2022-11-13T15:25:59.702Z,101053.69
2022-11-13T15:28:45.603Z,101048.69
2022-11-13T15:31:33.327Z,101053.31
2022-11-13T15:34:19.465Z,101056.38
2022-11-13T15:37:15.850Z,101055.66
2022-11-13T15:40:01.981Z,101054.81
2022-11-13T15:42:48.037Z,101050.84
2022-11-13T15:45:33.784Z,101049.34
2022-11-13T15:48:19.971Z,101046.00
2022-11-13T15:51:05.574Z,101053.00
2022-11-13T15:54:00.199Z,101054.13
2022-11-13T15:56:46.600Z,101057.78
2022-11-13T15:59:32.402Z,101048.25
2022-11-13T16:02:18.321Z,101048.69
2022-11-13T16:05:04.070Z,101053.75
2022-11-13T16:07:49.872Z,101058.31
2022-11-13T16:10:35.472Z,101055.56
2022-11-13T16:13:21.197Z,101051.53
2022-11-13T16:16:10.031Z,101044.56
2022-11-13T16:19:00.206Z,101040.81
2022-11-13T16:21:46.319Z,101041.41
2022-11-13T16:24:32.091Z,101037.34
2022-11-13T16:27:28.555Z,101035.88
2022-11-13T16:30:20.166Z,101043.09
2022-11-13T16:33:10.230Z,101048.00
2022-11-13T16:35:55.863Z,101041.41
2022-11-13T16:38:42.182Z,101039.91
2022-11-13T16:41:28.036Z,101039.84
2022-11-13T16:44:13.795Z,101042.41
2022-11-13T16:46:59.487Z,101039.38
2022-11-13T16:49:45.723Z,101041.00
2022-11-13T16:52:31.882Z,101044.47
2022-11-13T16:55:17.699Z,101039.78
2022-11-13T16:58:04.248Z,101038.50
2022-11-13T17:00:49.842Z,101028.09
2022-11-13T17:03:35.524Z,101034.44
2022-11-13T17:06:26.940Z,101047.19
2022-11-13T17:09:13.055Z,101042.50
2022-11-13T17:11:58.760Z,101039.34
2022-11-13T17:14:45.720Z,101041.97
2022-11-13T17:17:31.318Z,101035.75
2022-11-13T17:20:19.362Z,101030.81
2022-11-13T17:23:05.121Z,101037.94
2022-11-13T17:25:50.722Z,101031.84
2022-11-13T17:28:37.016Z,101027.37
2022-11-13T17:31:23.119Z,101034.28
2022-11-13T17:34:08.882Z,101031.62
2022-11-13T17:36:57.560Z,101019.13
2022-11-13T17:39:43.178Z,101022.31
2022-11-13T17:42:28.902Z,101014.25
2022-11-13T17:45:14.737Z,101017.13
2022-11-13T17:48:00.256Z,101014.88
2022-11-13T17:50:45.962Z,101016.22
2022-11-13T17:53:31.783Z,101015.12
2022-11-13T17:56:20.121Z,101009.19
2022-11-13T17:59:05.985Z,101014.25
2022-11-13T18:01:51.601Z,101017.31
2022-11-13T18:04:37.843Z,101027.09
2022-11-13T18:07:23.698Z,101025.12
2022-11-13T18:10:11.044Z,101028.88
2022-11-13T18:12:57.219Z,101018.22
2022-11-13T18:15:44.176Z,101026.41
2022-11-13T18:18:29.865Z,101033.34
2022-11-13T18:21:23.897Z,101036.84
2022-11-13T18:24:15.533Z,101032.44
2022-11-13T18:27:01.304Z,101028.44
2022-11-13T18:29:47.016Z,101038.09
2022-11-13T18:32:32.651Z,101033.00
2022-11-13T18:35:18.478Z,101041.59
2022-11-13T18:38:04.368Z,101032.47
2022-11-13T18:40:50.583Z,101027.97
2022-11-13T18:43:36.584Z,101025.56
2022-11-13T18:46:22.196Z,101044.78
2022-11-13T18:49:09.115Z,101031.44
2022-11-13T18:51:55.007Z,101045.50
2022-11-13T18:54:40.659Z,101047.59
2022-11-13T18:57:26.532Z,101048.72
2022-11-13T19:00:12.568Z,101044.22
2022-11-13T19:02:58.412Z,101041.41
2022-11-13T19:05:47.451Z,101043.37
2022-11-13T19:08:37.065Z,101036.50
2022-11-13T19:11:26.778Z,101040.03
2022-11-13T19:14:17.172Z,101036.25
2022-11-13T19:17:03.080Z,101032.47
2022-11-13T19:19:48.979Z,101033.72
2022-11-13T19:22:34.677Z,101034.72
2022-11-13T19:25:20.739Z,101038.06
2022-11-13T19:28:06.737Z,101035.66
2022-11-13T19:30:54.835Z,101043.94
2022-11-13T19:33:40.774Z,101033.31
2022-11-13T19:36:28.114Z,101041.84
2022-11-13T19:39:13.865Z,101035.41
2022-11-13T19:41:59.480Z,101040.72
2022-11-13T19:44:45.149Z,101049.25
2022-11-13T19:47:30.902Z,101046.69
2022-11-13T19:50:16.770Z,101040.59
2022-11-13T19:53:02.415Z,101042.28
2022-11-13T19:55:55.210Z,101043.53
2022-11-13T19:58:44.163Z,101046.44
2022-11-13T20:01:32.116Z,101037.75
2022-11-13T20:04:17.985Z,101040.44
2022-11-13T20:07:03.751Z,101041.00
2022-11-13T20:09:49.893Z,101038.75
2022-11-13T20:12:35.712Z,101033.25
2022-11-13T20:15:21.439Z,101041.94
2022-11-13T20:18:07.365Z,101035.41
2022-11-13T20:20:54.869Z,101043.66
2022-11-13T20:23:41.230Z,101040.47
2022-11-13T20:26:27.527Z,101037.78
2022-11-13T20:29:13.200Z,101031.75
2022-11-13T20:31:59.763Z,101035.56
2022-11-13T20:34:46.151Z,101036.69
2022-11-13T20:37:31.825Z,101039.69
2022-11-13T20:40:17.845Z,101039.56
2022-11-13T20:43:03.724Z,101031.47
2022-11-13T20:45:49.497Z,101036.25
2022-11-13T20:48:35.384Z,101033.81
2022-11-13T20:51:23.821Z,101033.16
2022-11-13T20:54:09.779Z,101038.81
2022-11-13T20:56:55.597Z,101039.91
2022-11-13T20:59:41.420Z,101037.13
2022-11-13T21:02:27.487Z,101034.03
2022-11-13T21:05:13.296Z,101022.09
2022-11-13T21:07:58.815Z,101029.38
2022-11-13T21:10:44.648Z,101024.56
2022-11-13T21:13:30.610Z,101027.53
2022-11-13T21:16:16.740Z,101025.78
2022-11-13T21:19:02.719Z,101032.94
2022-11-13T21:21:48.467Z,101027.59
2022-11-13T21:24:34.023Z,101029.91
2022-11-13T21:27:19.962Z,101035.03
2022-11-13T21:30:06.232Z,101035.41
2022-11-13T21:32:51.953Z,101031.50
2022-11-13T21:35:37.635Z,101033.66
2022-11-13T21:38:23.377Z,101033.94
2022-11-13T21:41:23.165Z,101031.31
2022-11-13T21:44:10.562Z,101029.84
2022-11-13T21:46:56.495Z,101033.25
2022-11-13T21:49:42.179Z,101034.41
2022-11-13T21:52:27.903Z,101031.53
2022-11-13T21:55:13.533Z,101031.75
2022-11-13T21:57:59.178Z,101036.09
2022-11-13T22:00:45.183Z,101024.56
2022-11-13T22:03:30.891Z,101025.50
2022-11-13T22:06:16.593Z,101018.91
2022-11-13T22:09:12.959Z,101031.09
2022-11-13T22:11:58.606Z,101030.53
2022-11-13T22:14:44.204Z,101021.88
2022-11-13T22:17:30.059Z,101020.41
2022-11-13T22:20:16.235Z,101019.87
2022-11-13T22:23:05.326Z,101024.28
2022-11-13T22:25:53.491Z,101026.09
2022-11-13T22:28:43.749Z,101023.13
2022-11-13T22:31:30.417Z,101026.59
2022-11-13T22:34:16.460Z,101023.06
2022-11-13T22:37:02.060Z,101017.09
2022-11-13T22:39:47.808Z,101016.72
2022-11-13T22:42:33.500Z,101015.66
2022-11-13T22:45:23.779Z,101016.66
2022-11-13T22:48:10.705Z,101011.84
2022-11-13T22:50:56.765Z,101004.56
2022-11-13T22:53:43.589Z,100994.16
2022-11-13T22:56:30.891Z,100980.59
2022-11-13T22:59:17.003Z,100977.44
2022-11-13T23:02:02.705Z,100977.09
2022-11-13T23:04:48.551Z,100977.28
2022-11-13T23:07:34.234Z,100979.28
2022-11-13T23:10:19.964Z,100968.00
2022-11-13T23:13:05.666Z,100975.06
2022-11-13T23:15:51.321Z,100968.87
2022-11-13T23:18:38.072Z,100971.94
2022-11-13T23:21:25.255Z,100966.16
2022-11-13T23:24:11.391Z,100966.09
2022-11-13T23:26:57.189Z,100971.56
2022-11-13T23:29:48.782Z,100973.72
2022-11-13T23:32:35.804Z,100968.06
2022-11-13T23:35:21.620Z,100967.62
2022-11-13T23:38:07.406Z,100969.22
2022-11-13T23:40:56.870Z,100970.25
2022-11-13T23:46:48.723Z,100974.12
2022-11-13T23:49:34.700Z,100973.06
2022-11-13T23:52:20.379Z,100969.88
2022-11-13T23:55:06.329Z,100970.69
2022-11-13T23:58:02.425Z,100974.41
